Airfield :
LOGIN :

Register | Disclaimer

   EN    FR    IT 

 










Legend :    VFR   Marginal VFR   IFR   Intensive IFR   Very Intensive IFR
Visi :
Ceiling :
>= 8 km
>= 3000ft
5 to 8 km
1000 to 3000 ft
1500m to 5 km
500 to 1000 ft
800 to 1500m
200 to 500 ft
< 800m
< 200 ft
Symbols :   Thunderstorms  Fog  Heavy snow  Heavy precipitations  Wind > 20 kt
SIGMETs :     Misc.  Thunderstorms  Icing  Turbulence  Mountain Waves  Volcanic Ashes






- Airport Elevation : 1830 ft


EBLB - Butgenbach Elsenborn

CURRENT METAR :
  • 300325Z AUTO VRB02KT 8000 BKN004/// 11/11 Q1017 YLO

EXPIRED METARs :
  • 300255Z AUTO VRB02KT 7000 BKN004/// BKN042/// 11/11 Q1017 YLO
  • 300225Z AUTO VRB02KT 9000 BKN003/// BKN110/// 12/12 Q1017 YLO
  • 300155Z AUTO VRB02KT 6000 BKN002/// BKN072/// BKN110/// 12/12 Q1017 AMB
  • 300145Z AUTO VRB02KT 9999 BKN004/// BKN072/// BKN110/// 12/12 Q1017 YLO
  • 300125Z AUTO VRB02KT 9999 SCT002/// BKN012/// OVC110/// 12/12 Q1017 AMB
  • 300115Z AUTO VRB02KT 1800 BR BKN002/// OVC013/// 12/12 Q1017 AMB
  • 300103Z AUTO VRB01KT 0650 BR OVC002/// 12/12 Q1017 RED
  • 300045Z AUTO VRB01KT 3300 OVC002/// 12/12 Q1018 AMB
  • 300025Z AUTO VRB01KT 9000 OVC003/// 12/12 Q1018 YLO

Expired Forecast.



MET'MAP, your aeronautical weather chart ! - Copyright ORBIFLY December 2007 - Disclaimer

ORBIFLY MET'MAP TEAM :

Programming & Development : Alexandra Zaïnal
Concept & original design : Baudouin d'Aumeries
Assistance for programming : Marc-Olivier Méhu
Technical & hardware support : Manuel Goepfert

Contact : metmap@orbifly.com




SOURCES & CREDITS :

   NOAA